ADDS METAR Data INFO
IDs: Format: Raw Decoded Include TAF

Data at: 0714 UTC 19 Oct 2017

KX60 190655Z AUTO 00000KT 7SM CLR 20/20 A3013 RMK A01
KX60 190635Z AUTO 00000KT 7SM CLR 20/20 A3013 RMK A01
KX60 190615Z AUTO 35005KT 5SM BR CLR 20/20 A3013 RMK A01
KX60 190555Z AUTO 00000KT 6SM BR CLR 20/20 A3014 RMK A01
KX60 190535Z AUTO 00000KT 7SM CLR 21/20 A3014 RMK A01
KX60 190515Z AUTO 00000KT 6SM BR CLR 21/20 A3015 RMK A01
KX60 190455Z AUTO 00000KT 7SM CLR 21/20 A3016 RMK A01
KX60 190435Z AUTO 36003KT 8SM CLR 21/20 A3017 RMK A01
KX60 190415Z AUTO 00000KT 7SM CLR 21/20 A3017 RMK A01
KX60 190355Z AUTO 00000KT 8SM CLR 22/20 A3017 RMK A01
KX60 190335Z AUTO 36005KT 8SM CLR 22/20 A3018 RMK A01
KX60 190315Z AUTO 00000KT 8SM CLR 22/20 A3018 RMK A01
KX60 190255Z AUTO 36007KT 8SM CLR 22/20 A3018 RMK A01
KX60 190235Z AUTO 00000KT 8SM CLR 22/20 A3018 RMK A01
KX60 190215Z AUTO 00000KT 7SM CLR 22/20 A3017 RMK A01
KX60 190155Z AUTO 00000KT 8SM CLR 23/20 A3017 RMK A01
KX60 190135Z AUTO 03004KT 9SM CLR 23/20 A3017 RMK A01
KX60 190115Z AUTO 02004KT 8SM CLR 23/20 A3016 RMK A01
KX60 190055Z AUTO 00000KT 9SM CLR 23/20 A3015 RMK A01
KX60 190035Z AUTO 00000KT 10SM CLR 24/20 A3015 RMK A01
KX60 190015Z AUTO 00000KT 9SM CLR 24/20 A3015 RMK A01
KX60 182355Z AUTO 00000KT 10SM CLR 24/19 A3014 RMK A01
KX60 182335Z AUTO 00000KT 10SM CLR 25/19 A3014 RMK A01
KX60 182315Z AUTO 00000KT 8SM CLR 25/18 A3013 RMK A01
KX60 182255Z AUTO 03003G11KT 8SM CLR 26/18 A3013 RMK A01
KX60 182235Z AUTO 00000G12KT 8SM CLR 26/18 A3012 RMK A01
KX60 182215Z AUTO 03008KT 360V060 9SM CLR 27/18 A3011 RMK A01
KX60 182155Z AUTO VRB05G13KT 9SM CLR 28/17 A3012 RMK A01
KX60 182135Z AUTO 00000G12KT 8SM CLR 28/17 A3012 RMK A01
KX60 182115Z AUTO 04007G15KT 010V070 8SM CLR 28/18 A3011 RMK A01
KX60 182055Z AUTO 05010G18KT 020V080 9SM CLR 29/19 A3011 RMK A01
KX60 182035Z AUTO VRB05G17KT 8SM CLR 28/19 A3011 RMK A01
KX60 182015Z AUTO 04009G14KT 010V080 8SM CLR 29/19 A3011 RMK A01
KX60 181955Z AUTO VRB03G14KT 7SM CLR 29/19 A3010 RMK A01
KX60 181935Z AUTO 07011KT 8SM CLR 30/19 A3010 RMK A01
KX60 181915Z AUTO 04008G17KT 7SM CLR 29/19 A3010 RMK A01
KX60 181855Z AUTO 03010KT 8SM CLR 29/20 A3011 RMK A01
KX60 181835Z AUTO VRB06G14KT 8SM CLR 28/20 A3011 RMK A01
KX60 181815Z AUTO VRB06G11KT 7SM CLR 28/21 A3012 RMK A01
KX60 181755Z AUTO VRB06G14KT 020V080 6SM HZ CLR 28/21 A3013 RMK A01
KX60 181735Z AUTO 01010G16KT 7SM CLR 29/21 A3014 RMK A01
KX60 181715Z AUTO 02010KT 7SM CLR 29/21 A3014 RMK A01
KX60 181655Z AUTO 03010G16KT 7SM CLR 29/21 A3015 RMK A01
KX60 181635Z AUTO 04009G15KT 7SM CLR 28/21 A3016 RMK A01
KX60 181615Z AUTO 02006G11KT 7SM CLR 27/21 A3016 RMK A01
KX60 181555Z AUTO VRB04G14KT 7SM CLR 27/21 A3017 RMK A01
KX60 181535Z AUTO 02008G14KT 7SM CLR 26/21 A3017 RMK A01
KX60 181515Z AUTO 02009G17KT 8SM CLR 25/20 A3017 RMK A01
KX60 181455Z AUTO 02012G17KT 7SM CLR 24/20 A3017 RMK A01
KX60 181435Z AUTO 02009KT 6SM HZ CLR 24/19 A3018 RMK A01
KX60 181415Z AUTO 01010KT 7SM CLR 23/19 A3017 RMK A01
KX60 181355Z AUTO 02008KT 350V050 6SM HZ CLR 22/18 A3017 RMK A01
KX60 181335Z AUTO 01008KT 7SM CLR 21/18 A3017 RMK A01
KX60 181315Z AUTO 01007KT 7SM CLR 20/17 A3017 RMK A01
KX60 181255Z AUTO 35006KT 7SM CLR 19/17 A3016 RMK A01
KX60 181235Z AUTO 36004KT 7SM CLR 18/16 A3016 RMK A01
KX60 181215Z AUTO 35004KT 7SM CLR 17/16 A3015 RMK A01
KX60 181155Z AUTO 34004KT 7SM CLR 16/15 A3015 RMK A01
KX60 181135Z AUTO 34004KT 7SM CLR 16/15 A3015 RMK A01
KX60 181115Z AUTO 35005KT 9SM CLR 16/15 A3014 RMK A01
KX60 181055Z AUTO 35004KT 9SM CLR 17/15 A3013 RMK A01
KX60 181035Z AUTO 34006KT 9SM CLR 17/15 A3013 RMK A01
KX60 181015Z AUTO 34004KT 9SM CLR 17/15 A3012 RMK A01
KX60 180955Z AUTO 35005KT 9SM CLR 17/15 A3012 RMK A01
KX60 180935Z AUTO 34006KT 9SM CLR 17/15 A3011 RMK A01
KX60 180915Z AUTO 35005KT 9SM CLR 17/15 A3011 RMK A01
KX60 180855Z AUTO 34005KT 10SM CLR 17/15 A3011 RMK A01
KX60 180835Z AUTO 33005KT 9SM CLR 17/15 A3011 RMK A01
KX60 180815Z AUTO 35004KT 9SM CLR 17/16 A3011 RMK A01
KX60 180755Z AUTO 34004KT 9SM CLR 17/16 A3011 RMK A01
KX60 180735Z AUTO 34005KT 10SM CLR 17/16 A3011 RMK A01
KX60 180715Z AUTO 35005KT 9SM CLR 17/16 A3012 RMK A01
KX60 180655Z AUTO 35005KT 10SM CLR 17/16 A3012 RMK A01
KX60 180635Z AUTO 34003KT 10SM CLR 17/16 A3013 RMK A01
KX60 180615Z AUTO 34005KT 9SM CLR 17/16 A3013 RMK A01
KX60 180555Z AUTO 35005KT 10SM CLR 17/16 A3013 RMK A01
KX60 180535Z AUTO 34005KT 9SM CLR 17/16 A3013 RMK A01
KX60 180515Z AUTO 34005KT 9SM CLR 17/16 A3013 RMK A01
KX60 180455Z AUTO 35005KT 10SM CLR 18/16 A3014 RMK A01
KX60 180435Z AUTO 35006KT 10SM CLR 18/16 A3014 RMK A01
KX60 180415Z AUTO 36006KT 9SM CLR 18/16 A3015 RMK A01
KX60 180355Z AUTO 36007KT 10SM CLR 18/16 A3015 RMK A01
KX60 180335Z AUTO 35007KT 10SM CLR 18/16 A3015 RMK A01
KX60 180315Z AUTO 36008KT 9SM CLR 18/16 A3015 RMK A01
KX60 180255Z AUTO 36009KT 10SM CLR 19/16 A3016 RMK A01
KX60 180235Z AUTO 36007KT 10SM CLR 19/16 A3016 RMK A01
KX60 180215Z AUTO 36007G14KT 8SM CLR 19/16 A3016 RMK A01
KX60 180155Z AUTO 36009KT 10SM CLR 19/16 A3016 RMK A01
KX60 180135Z AUTO 36008G14KT 9SM FEW019 19/16 A3015 RMK A01
KX60 180115Z AUTO 01010KT 10SM SCT019 20/17 A3015 RMK A01
KX60 180055Z AUTO 36009G16KT 10SM SCT018 20/17 A3015 RMK A01
KX60 180035Z AUTO 01009G16KT 9SM SCT019 21/17 A3015 RMK A01
KX60 180015Z AUTO 36013KT 8SM BKN019 21/17 A3013 RMK A01
KX60 172355Z AUTO 36012KT 9SM BKN018 21/18 A3013 RMK A01
KX60 172335Z AUTO 01007G16KT 9SM BKN018 22/18 A3014 RMK A01
KX60 172315Z AUTO 02009G16KT 8SM BKN018 22/18 A3012 RMK A01
KX60 172255Z AUTO 02009KT 6SM HZ SCT018 22/18 A3011 RMK A01
KX60 172235Z AUTO 01010G16KT 7SM SCT019 22/18 A3011 RMK A01
KX60 172215Z AUTO 02010G16KT 7SM FEW018 22/18 A3010 RMK A01
KX60 172155Z AUTO 01011G18KT 6SM HZ FEW017 23/19 A3010 RMK A01
KX60 172135Z AUTO 01011KT 7SM CLR 23/19 A3009 RMK A01
KX60 172115Z AUTO 02011KT 7SM FEW022 23/19 A3009 RMK A01
KX60 172055Z AUTO 01011KT 7SM FEW022 24/19 A3009 RMK A01
KX60 172035Z AUTO 03010KT 7SM CLR 24/20 A3009 RMK A01
KX60 172015Z AUTO 02007G14KT 350V050 6SM HZ CLR 24/20 A3009 RMK A01
KX60 171955Z AUTO 01011KT 340V040 7SM CLR 24/20 A3009 RMK A01
KX60 171935Z AUTO 01010G17KT 360V060 5SM HZ CLR 24/20 A3009 RMK A01
KX60 171915Z AUTO 02011G16KT 7SM CLR 25/20 A3009 RMK A01